createdAt,value
2022-07-27T00:01:18.413Z,64.30
2022-07-27T00:03:47.084Z,64.50
2022-07-27T00:06:15.553Z,65.10
2022-07-27T00:08:43.641Z,65.20
2022-07-27T00:11:12.278Z,65.40
2022-07-27T00:13:42.004Z,65.70
2022-07-27T00:16:12.464Z,66.10
2022-07-27T00:18:43.602Z,66.40
2022-07-27T00:21:14.605Z,66.70
2022-07-27T00:23:43.188Z,67.00
2022-07-27T00:26:11.253Z,67.10
2022-07-27T00:28:40.901Z,67.40
2022-07-27T00:31:09.064Z,67.60
2022-07-27T00:33:39.696Z,67.80
2022-07-27T00:36:08.284Z,68.20
2022-07-27T00:38:36.416Z,68.40
2022-07-27T00:41:04.930Z,68.70
2022-07-27T00:43:34.011Z,69.10
2022-07-27T00:46:04.786Z,69.80
2022-07-27T00:48:35.678Z,70.10
2022-07-27T00:51:03.810Z,70.40
2022-07-27T00:53:34.198Z,70.60
2022-07-27T00:56:02.262Z,71.10
2022-07-27T00:58:33.057Z,71.40
2022-07-27T01:01:05.381Z,71.70
2022-07-27T01:03:35.881Z,72.10
2022-07-27T01:06:08.260Z,72.30
2022-07-27T01:08:38.313Z,72.50
2022-07-27T01:11:06.811Z,72.80
2022-07-27T01:13:36.351Z,72.80
2022-07-27T01:16:09.157Z,73.00
2022-07-27T01:18:41.044Z,73.20
2022-07-27T01:21:10.701Z,73.10
2022-07-27T01:23:40.161Z,73.10
2022-07-27T01:26:08.432Z,73.10
2022-07-27T01:28:36.520Z,73.10
2022-07-27T01:31:06.768Z,74.00
2022-07-27T01:33:34.932Z,74.10
2022-07-27T01:36:03.104Z,73.50
2022-07-27T01:38:33.473Z,73.60
2022-07-27T01:41:02.948Z,73.80
2022-07-27T01:43:31.564Z,73.90
2022-07-27T01:46:00.137Z,74.00
2022-07-27T01:48:28.289Z,73.90
2022-07-27T01:50:56.390Z,74.00
2022-07-27T01:53:25.254Z,74.10
2022-07-27T01:55:55.721Z,74.10
2022-07-27T01:58:25.247Z,74.00
2022-07-27T02:00:53.461Z,74.20
2022-07-27T02:03:23.712Z,74.10
2022-07-27T02:05:54.272Z,74.00
2022-07-27T02:08:22.513Z,74.00
2022-07-27T02:11:08.225Z,74.10
2022-07-27T02:13:37.799Z,74.20
2022-07-27T02:16:16.656Z,74.00
2022-07-27T02:18:46.379Z,73.80
2022-07-27T02:21:17.090Z,73.60
2022-07-27T02:23:46.866Z,73.50
2022-07-27T02:26:17.198Z,73.50
2022-07-27T02:28:46.691Z,73.40
2022-07-27T02:31:14.845Z,73.40
2022-07-27T02:33:43.058Z,73.40
2022-07-27T02:36:11.818Z,73.30
2022-07-27T02:38:42.114Z,73.10
2022-07-27T02:41:10.348Z,72.90
2022-07-27T02:43:38.550Z,72.80
2022-07-27T02:46:08.065Z,72.80
2022-07-27T02:48:36.429Z,72.60
2022-07-27T02:51:04.976Z,72.30
2022-07-27T02:53:33.302Z,71.90
2022-07-27T02:56:01.404Z,71.80
2022-07-27T02:58:29.729Z,71.50
2022-07-27T03:00:58.690Z,71.30
2022-07-27T03:03:36.088Z,70.90
2022-07-27T03:06:05.598Z,70.50
2022-07-27T03:08:36.662Z,70.50
2022-07-27T03:11:05.062Z,70.40
2022-07-27T03:13:35.958Z,69.90
2022-07-27T03:16:04.237Z,69.60
2022-07-27T03:18:33.710Z,69.40
2022-07-27T03:21:04.314Z,69.10
2022-07-27T03:23:34.805Z,69.20
2022-07-27T03:26:02.938Z,68.80
2022-07-27T03:28:31.009Z,68.70
2022-07-27T03:31:01.560Z,68.50
2022-07-27T03:33:29.796Z,68.20
2022-07-27T03:35:59.268Z,67.90
2022-07-27T03:38:29.911Z,67.70
2022-07-27T03:40:58.066Z,67.50
2022-07-27T03:43:28.237Z,67.30
2022-07-27T03:45:56.365Z,67.10
2022-07-27T03:48:24.568Z,67.00
2022-07-27T03:50:54.912Z,66.90
2022-07-27T03:53:26.892Z,66.70
2022-07-27T03:55:57.509Z,66.70
2022-07-27T03:58:25.911Z,66.50
2022-07-27T04:00:54.042Z,66.00
2022-07-27T04:03:25.132Z,65.70
2022-07-27T04:05:53.773Z,66.50
2022-07-27T04:08:22.269Z,65.40
2022-07-27T04:10:51.744Z,65.30
2022-07-27T04:13:22.742Z,65.50
2022-07-27T04:15:50.996Z,65.00
2022-07-27T04:18:19.161Z,65.00
2022-07-27T04:20:49.494Z,64.70
2022-07-27T04:23:20.634Z,64.40
2022-07-27T04:25:48.881Z,64.20
2022-07-27T04:28:18.877Z,64.20
2022-07-27T04:30:47.185Z,64.20
2022-07-27T04:33:15.383Z,63.90
2022-07-27T04:35:46.908Z,64.10
2022-07-27T04:38:14.970Z,63.60
2022-07-27T04:40:43.068Z,63.50
2022-07-27T04:43:11.318Z,63.30
2022-07-27T04:45:44.276Z,63.00
2022-07-27T04:48:12.816Z,62.80
2022-07-27T04:50:42.151Z,62.60
2022-07-27T04:53:11.986Z,62.20
2022-07-27T04:55:43.924Z,62.20
2022-07-27T04:58:13.563Z,62.00
2022-07-27T05:00:43.555Z,62.00
2022-07-27T05:03:14.011Z,61.70
2022-07-27T05:05:49.782Z,61.60
2022-07-27T05:08:19.376Z,61.30
2022-07-27T05:10:47.610Z,61.00
2022-07-27T05:13:17.819Z,61.00
2022-07-27T05:15:55.084Z,60.70
2022-07-27T05:18:24.300Z,60.20
2022-07-27T05:20:52.427Z,60.00
2022-07-27T05:23:20.602Z,59.80
2022-07-27T05:25:48.726Z,59.90
2022-07-27T05:28:18.456Z,59.80
2022-07-27T05:30:47.996Z,59.70
2022-07-27T05:33:18.722Z,59.40
2022-07-27T05:35:46.846Z,59.20
2022-07-27T05:38:14.938Z,59.20
2022-07-27T05:40:45.238Z,59.10
2022-07-27T05:43:13.380Z,58.90
2022-07-27T05:45:41.945Z,58.70
2022-07-27T05:48:11.686Z,58.20
2022-07-27T05:50:41.846Z,58.10
2022-07-27T05:53:12.977Z,58.00
2022-07-27T05:55:59.150Z,57.90
2022-07-27T05:58:29.421Z,57.80
2022-07-27T06:00:57.856Z,57.60
2022-07-27T06:03:29.652Z,57.40
2022-07-27T06:06:14.174Z,57.20
2022-07-27T06:08:42.290Z,57.00
2022-07-27T06:11:10.510Z,56.80
2022-07-27T06:13:41.973Z,56.50
2022-07-27T06:16:11.186Z,56.40
2022-07-27T06:18:40.860Z,56.30
2022-07-27T06:21:09.848Z,56.10
2022-07-27T06:23:37.996Z,55.80
2022-07-27T06:26:09.534Z,55.90
2022-07-27T06:28:37.786Z,56.10
2022-07-27T06:31:06.226Z,55.90
2022-07-27T06:33:37.158Z,55.90
2022-07-27T06:36:08.442Z,55.70
2022-07-27T06:38:38.904Z,55.40
2022-07-27T06:41:07.254Z,55.40
2022-07-27T06:43:35.458Z,55.20
2022-07-27T06:46:07.196Z,55.00
2022-07-27T06:48:43.402Z,55.00
2022-07-27T06:51:13.093Z,54.80
2022-07-27T06:53:43.777Z,55.00
2022-07-27T06:56:11.964Z,55.00
2022-07-27T06:58:41.980Z,54.90
2022-07-27T07:01:10.179Z,54.70
2022-07-27T07:03:41.245Z,54.60
2022-07-27T07:06:09.466Z,54.50
2022-07-27T07:08:39.004Z,54.40
2022-07-27T07:11:07.169Z,54.20
2022-07-27T07:13:40.067Z,54.10
2022-07-27T07:16:10.374Z,54.10
2022-07-27T07:18:40.957Z,54.20
2022-07-27T07:21:08.992Z,54.10
2022-07-27T07:23:38.454Z,54.20
2022-07-27T07:26:06.969Z,54.90
2022-07-27T07:28:36.247Z,54.20
2022-07-27T07:31:04.567Z,54.00
2022-07-27T07:33:32.800Z,53.80
2022-07-27T07:36:14.261Z,53.40
2022-07-27T07:38:45.112Z,53.10
2022-07-27T07:41:14.169Z,52.70
2022-07-27T07:43:42.411Z,52.50
2022-07-27T07:46:10.781Z,52.40
2022-07-27T07:48:40.143Z,52.10
2022-07-27T07:51:10.675Z,52.10
2022-07-27T07:53:41.770Z,52.10
2022-07-27T07:56:11.644Z,52.30
2022-07-27T07:58:42.817Z,52.30
2022-07-27T08:01:12.273Z,51.60
2022-07-27T08:03:46.153Z,51.50
2022-07-27T08:06:16.892Z,51.80
2022-07-27T08:08:45.145Z,51.60
2022-07-27T08:11:15.031Z,51.50
2022-07-27T08:13:45.710Z,51.30
2022-07-27T08:16:13.944Z,51.10
2022-07-27T08:18:42.094Z,50.70
2022-07-27T08:21:10.330Z,50.70
2022-07-27T08:23:38.870Z,50.70
2022-07-27T08:26:08.101Z,50.90
2022-07-27T08:28:37.929Z,51.00
2022-07-27T08:31:15.359Z,51.00
2022-07-27T08:33:47.157Z,51.10
2022-07-27T08:36:15.483Z,50.60
2022-07-27T08:38:43.859Z,50.50
2022-07-27T08:41:15.614Z,50.10
2022-07-27T08:43:45.695Z,49.80
2022-07-27T08:46:19.662Z,49.80
2022-07-27T08:48:48.442Z,49.70
2022-07-27T08:51:16.867Z,49.80
2022-07-27T08:53:52.583Z,49.20
2022-07-27T08:56:24.502Z,48.80
2022-07-27T08:58:54.209Z,48.50
2022-07-27T09:01:22.585Z,48.40
2022-07-27T09:03:50.800Z,48.70
2022-07-27T09:06:42.895Z,49.00
2022-07-27T09:09:11.885Z,48.80
2022-07-27T09:11:40.551Z,49.00
2022-07-27T09:14:12.369Z,48.90
2022-07-27T09:17:28.457Z,48.80
2022-07-27T09:19:29.487Z,48.90
2022-07-27T09:21:57.620Z,49.00
2022-07-27T09:24:46.237Z,48.70
2022-07-27T09:27:15.753Z,48.90
2022-07-27T09:29:45.362Z,49.10
2022-07-27T09:32:16.937Z,49.00
2022-07-27T09:34:46.169Z,49.10
2022-07-27T09:37:25.421Z,49.00
2022-07-27T09:40:11.512Z,48.50
2022-07-27T09:43:09.093Z,48.40
2022-07-27T09:45:34.445Z,48.60
2022-07-27T09:48:12.218Z,48.20
2022-07-27T09:50:58.455Z,48.00
2022-07-27T09:53:43.703Z,48.30
2022-07-27T09:56:15.098Z,48.40
2022-07-27T09:58:48.099Z,48.00
2022-07-27T10:01:21.433Z,48.00
2022-07-27T10:03:54.679Z,47.90
2022-07-27T10:06:25.418Z,47.60
2022-07-27T10:08:55.935Z,47.60
2022-07-27T10:11:25.353Z,47.40
2022-07-27T10:13:55.454Z,47.20
2022-07-27T10:16:28.878Z,47.00
2022-07-27T10:19:08.558Z,47.00
2022-07-27T10:21:41.331Z,47.10
2022-07-27T10:24:12.731Z,47.10
2022-07-27T10:26:43.453Z,47.10
2022-07-27T10:29:20.340Z,47.00
2022-07-27T10:32:01.223Z,47.10
2022-07-27T10:34:36.706Z,46.80
2022-07-27T10:37:13.789Z,46.80
2022-07-27T10:39:44.043Z,46.90
2022-07-27T10:42:30.564Z,46.90
2022-07-27T10:45:07.883Z,46.60
2022-07-27T10:47:44.569Z,46.60
2022-07-27T10:50:33.365Z,47.40
2022-07-27T10:53:08.163Z,46.80
2022-07-27T10:55:51.569Z,46.70
2022-07-27T10:58:47.727Z,46.70
2022-07-27T11:01:17.204Z,46.70
2022-07-27T11:03:57.251Z,46.80
2022-07-27T11:06:33.452Z,46.20
2022-07-27T11:09:59.989Z,46.20
2022-07-27T11:12:01.924Z,46.40
2022-07-27T11:14:31.863Z,46.30
2022-07-27T11:17:32.433Z,46.10
2022-07-27T11:19:57.897Z,45.70
2022-07-27T11:23:03.176Z,45.50
2022-07-27T11:25:25.614Z,45.30
2022-07-27T11:27:56.095Z,45.40
2022-07-27T11:30:25.994Z,45.60
2022-07-27T11:32:54.804Z,45.70
2022-07-27T11:35:25.236Z,45.80
2022-07-27T11:38:01.412Z,45.30
2022-07-27T11:43:38.312Z,45.40
2022-07-27T11:46:17.516Z,44.80
2022-07-27T11:49:06.200Z,44.60
2022-07-27T11:51:38.483Z,44.30
2022-07-27T11:54:08.561Z,44.00
2022-07-27T11:56:38.727Z,44.00
2022-07-27T11:59:15.904Z,44.10
2022-07-27T12:01:49.695Z,44.80
2022-07-27T12:04:21.511Z,44.40
2022-07-27T12:07:06.722Z,44.30
2022-07-27T12:09:38.568Z,44.10
2022-07-27T12:12:13.898Z,44.10
2022-07-27T12:14:45.888Z,43.90
2022-07-27T12:17:18.540Z,43.60
2022-07-27T12:19:58.758Z,43.60
2022-07-27T12:22:34.833Z,43.20
2022-07-27T12:25:10.067Z,43.50
2022-07-27T12:27:57.491Z,43.20
2022-07-27T12:30:36.821Z,42.00
2022-07-27T12:33:07.597Z,41.10
2022-07-27T12:35:46.570Z,40.20
2022-07-27T12:38:16.601Z,38.70
2022-07-27T12:40:49.154Z,38.00
2022-07-27T12:43:18.769Z,38.00
2022-07-27T12:45:48.083Z,37.60
2022-07-27T12:48:19.481Z,37.00
2022-07-27T12:50:49.485Z,35.90
2022-07-27T12:53:19.090Z,36.30
2022-07-27T12:55:47.400Z,36.20
2022-07-27T12:58:17.103Z,35.90
2022-07-27T13:00:45.433Z,35.50
2022-07-27T13:03:13.625Z,35.30
2022-07-27T13:05:42.499Z,35.00
2022-07-27T13:08:11.412Z,34.60
2022-07-27T13:10:40.982Z,34.90
2022-07-27T13:13:09.886Z,35.30
2022-07-27T13:15:38.212Z,36.00
2022-07-27T13:18:08.426Z,36.30
2022-07-27T13:20:37.762Z,35.70
2022-07-27T13:23:09.228Z,35.30
2022-07-27T13:25:43.385Z,35.50
2022-07-27T13:28:14.130Z,35.90
2022-07-27T13:30:42.402Z,36.50
2022-07-27T13:33:10.746Z,36.80
2022-07-27T13:35:39.006Z,36.70
2022-07-27T13:38:07.152Z,36.30
2022-07-27T13:40:35.369Z,36.00
2022-07-27T13:43:09.260Z,35.60
2022-07-27T13:45:43.272Z,35.60
2022-07-27T13:48:13.184Z,35.80
2022-07-27T13:50:41.695Z,35.80
2022-07-27T13:53:10.056Z,35.40
2022-07-27T13:55:44.150Z,35.20
2022-07-27T13:58:14.115Z,34.50
2022-07-27T14:00:42.487Z,34.20
2022-07-27T14:03:10.751Z,33.50
2022-07-27T14:05:45.477Z,33.50
2022-07-27T14:08:18.707Z,34.20
2022-07-27T14:10:47.108Z,34.10
2022-07-27T14:13:17.939Z,34.60
2022-07-27T14:15:55.664Z,34.40
2022-07-27T14:18:28.823Z,34.40
2022-07-27T14:20:58.583Z,34.60
2022-07-27T14:23:27.889Z,34.40
2022-07-27T14:25:56.639Z,34.60
2022-07-27T14:28:27.437Z,34.80
2022-07-27T14:30:56.744Z,34.70
2022-07-27T14:33:25.293Z,34.70
2022-07-27T14:35:58.539Z,34.60
2022-07-27T14:38:30.473Z,34.50
2022-07-27T14:41:01.050Z,35.50
2022-07-27T14:43:33.109Z,35.40
2022-07-27T14:46:03.756Z,36.30
2022-07-27T14:49:03.218Z,36.00
2022-07-27T14:51:20.126Z,36.00
2022-07-27T14:53:48.359Z,35.40
2022-07-27T14:56:16.884Z,35.20
2022-07-27T14:58:46.534Z,35.20
2022-07-27T15:01:16.961Z,34.80
2022-07-27T15:03:46.418Z,34.60
2022-07-27T15:06:14.710Z,34.30
2022-07-27T15:08:42.841Z,34.20
2022-07-27T15:11:11.208Z,33.80
2022-07-27T15:13:39.412Z,33.70
2022-07-27T15:16:09.101Z,33.70
2022-07-27T15:18:38.787Z,34.40
2022-07-27T15:21:13.472Z,34.10
2022-07-27T15:23:43.555Z,33.40
2022-07-27T15:26:13.001Z,33.60
2022-07-27T15:28:43.863Z,33.10
2022-07-27T15:31:13.864Z,33.10
2022-07-27T15:33:42.323Z,33.50
2022-07-27T15:36:31.551Z,33.30
2022-07-27T15:38:59.857Z,33.70
2022-07-27T15:41:30.858Z,34.60
2022-07-27T15:43:59.370Z,35.80
2022-07-27T15:46:28.935Z,35.70
2022-07-27T15:48:57.377Z,35.90
2022-07-27T15:51:26.170Z,36.20
2022-07-27T15:53:54.595Z,36.20
2022-07-27T15:56:22.678Z,36.40
2022-07-27T15:58:51.225Z,36.40
2022-07-27T16:01:21.983Z,36.70
2022-07-27T16:03:52.153Z,36.70
2022-07-27T16:06:20.357Z,35.90
2022-07-27T16:08:48.590Z,35.20
2022-07-27T16:11:16.793Z,35.40
2022-07-27T16:13:48.238Z,34.10
2022-07-27T16:16:31.110Z,34.10
2022-07-27T16:19:12.313Z,33.90
2022-07-27T16:21:54.660Z,34.10
2022-07-27T16:24:29.059Z,34.60
2022-07-27T16:27:00.532Z,35.80
2022-07-27T16:29:28.687Z,36.20
2022-07-27T16:31:58.972Z,36.20
2022-07-27T16:34:32.361Z,36.00
2022-07-27T16:37:01.249Z,35.50
2022-07-27T16:39:29.477Z,36.00
2022-07-27T16:41:58.396Z,35.00
2022-07-27T16:44:29.145Z,34.70
2022-07-27T16:46:57.526Z,34.30
2022-07-27T16:49:33.538Z,34.10
2022-07-27T16:52:09.533Z,34.00
2022-07-27T16:54:39.748Z,33.40
2022-07-27T16:57:09.190Z,33.10
2022-07-27T16:59:39.075Z,33.30
2022-07-27T17:02:07.697Z,34.10
2022-07-27T17:04:38.489Z,33.80
2022-07-27T17:07:12.624Z,34.10
2022-07-27T17:09:41.154Z,34.10
2022-07-27T17:12:09.534Z,33.90
2022-07-27T17:14:40.220Z,34.10
2022-07-27T17:17:08.465Z,34.00
2022-07-27T17:19:36.957Z,34.00
2022-07-27T17:22:08.631Z,34.00
2022-07-27T17:24:38.296Z,33.70
2022-07-27T17:27:06.754Z,33.50
2022-07-27T17:29:35.005Z,33.60
2022-07-27T17:32:03.153Z,33.90
2022-07-27T17:34:33.296Z,33.70
2022-07-27T17:37:02.186Z,33.70
2022-07-27T17:39:31.956Z,34.00
2022-07-27T17:42:00.271Z,34.30
2022-07-27T17:44:28.348Z,34.40
2022-07-27T17:47:01.122Z,34.40
2022-07-27T17:49:29.659Z,34.40
2022-07-27T17:51:58.007Z,34.50
2022-07-27T17:54:26.954Z,34.40
2022-07-27T17:56:58.916Z,34.40
2022-07-27T17:59:38.411Z,34.70
2022-07-27T18:02:09.973Z,34.90
2022-07-27T18:04:39.603Z,35.10
2022-07-27T18:07:07.939Z,35.50
2022-07-27T18:09:47.070Z,35.60
2022-07-27T18:12:21.543Z,35.70
2022-07-27T18:15:07.999Z,36.00
2022-07-27T18:17:38.986Z,36.20
2022-07-27T18:20:11.186Z,36.30
2022-07-27T18:22:39.387Z,36.50
2022-07-27T18:25:09.543Z,36.90
2022-07-27T18:27:40.759Z,37.30
2022-07-27T18:30:09.825Z,37.80
2022-07-27T18:32:37.941Z,37.70
2022-07-27T18:35:06.834Z,38.10
2022-07-27T18:37:35.742Z,38.30
2022-07-27T18:40:04.500Z,38.50
2022-07-27T18:42:32.699Z,38.70
2022-07-27T18:45:02.571Z,38.80
2022-07-27T18:47:30.681Z,39.10
2022-07-27T18:49:58.769Z,39.30
2022-07-27T18:52:26.988Z,39.40
2022-07-27T18:54:57.417Z,39.50
2022-07-27T18:57:25.543Z,39.50
2022-07-27T18:59:53.963Z,39.70
2022-07-27T19:02:23.731Z,39.80
2022-07-27T19:04:53.670Z,40.10
2022-07-27T19:07:21.917Z,40.50
2022-07-27T19:09:54.436Z,40.30
2022-07-27T19:12:24.945Z,40.60
2022-07-27T19:14:53.447Z,40.60
2022-07-27T19:17:23.129Z,40.80
2022-07-27T19:19:51.405Z,40.90
2022-07-27T19:22:20.216Z,41.10
2022-07-27T19:24:52.918Z,41.30
2022-07-27T19:27:23.031Z,41.30
2022-07-27T19:29:51.183Z,41.60
2022-07-27T19:32:19.888Z,41.70
2022-07-27T19:34:49.567Z,41.70
2022-07-27T19:37:17.727Z,41.90
2022-07-27T19:39:57.132Z,42.20
2022-07-27T19:42:28.346Z,42.20
2022-07-27T19:44:56.611Z,42.30
2022-07-27T19:47:25.397Z,42.60
2022-07-27T19:49:54.961Z,42.80
2022-07-27T19:52:23.121Z,43.00
2022-07-27T19:54:51.220Z,43.20
2022-07-27T19:57:19.397Z,43.30
2022-07-27T19:59:55.554Z,43.30
2022-07-27T20:02:27.011Z,43.40
2022-07-27T20:04:56.798Z,43.50
2022-07-27T20:07:25.119Z,43.90
2022-07-27T20:09:53.475Z,44.50
2022-07-27T20:12:21.691Z,44.70
2022-07-27T20:14:51.960Z,44.90
2022-07-27T20:17:20.140Z,44.80
2022-07-27T20:19:48.321Z,45.00
2022-07-27T20:22:17.906Z,45.00
2022-07-27T20:24:46.110Z,45.20
2022-07-27T20:27:14.474Z,45.30
2022-07-27T20:29:42.684Z,45.30
2022-07-27T20:32:11.568Z,45.30
2022-07-27T20:34:39.680Z,45.60
2022-07-27T20:37:08.046Z,45.90
2022-07-27T20:39:37.783Z,45.90
2022-07-27T20:42:08.039Z,46.80
2022-07-27T20:44:38.518Z,46.40
2022-07-27T20:47:09.070Z,46.60
2022-07-27T20:49:37.362Z,46.60
2022-07-27T20:52:05.892Z,46.80
2022-07-27T20:54:34.273Z,46.70
2022-07-27T20:57:03.842Z,46.90
2022-07-27T20:59:32.670Z,47.10
2022-07-27T21:02:01.030Z,47.20
2022-07-27T21:04:29.308Z,47.30
2022-07-27T21:06:57.576Z,47.40
2022-07-27T21:09:25.863Z,47.50
2022-07-27T21:11:56.131Z,47.60
2022-07-27T21:14:25.744Z,48.40
2022-07-27T21:16:56.249Z,48.20
2022-07-27T21:19:24.422Z,48.30
2022-07-27T21:21:52.588Z,48.50
2022-07-27T21:24:22.771Z,48.70
2022-07-27T21:26:54.293Z,48.70
2022-07-27T21:29:27.732Z,49.30
2022-07-27T21:31:59.860Z,48.70
2022-07-27T21:34:28.034Z,48.70
2022-07-27T21:36:58.470Z,48.90
2022-07-27T21:39:28.961Z,48.90
2022-07-27T21:42:02.171Z,49.00
2022-07-27T21:44:32.515Z,49.00
2022-07-27T21:47:00.679Z,49.30
2022-07-27T21:49:33.949Z,49.40
2022-07-27T21:52:02.975Z,49.40
2022-07-27T21:54:33.433Z,49.50
2022-07-27T21:57:04.025Z,49.50
2022-07-27T21:59:33.574Z,49.40
2022-07-27T22:02:01.805Z,49.50
2022-07-27T22:04:30.036Z,49.70
2022-07-27T22:07:01.251Z,49.70
2022-07-27T22:09:29.663Z,49.80
2022-07-27T22:11:57.868Z,49.70
2022-07-27T22:14:26.182Z,49.90
2022-07-27T22:16:56.680Z,50.00
2022-07-27T22:19:27.017Z,50.10
2022-07-27T22:21:55.220Z,50.00
2022-07-27T22:24:23.512Z,50.10
2022-07-27T22:26:51.641Z,50.10
2022-07-27T22:29:21.893Z,50.10
2022-07-27T22:31:52.283Z,50.10
2022-07-27T22:34:21.899Z,50.30
2022-07-27T22:36:50.144Z,50.40
2022-07-27T22:39:19.708Z,50.60
2022-07-27T22:41:47.850Z,50.70
2022-07-27T22:44:16.410Z,50.70
2022-07-27T22:46:48.568Z,50.80
2022-07-27T22:49:18.939Z,50.90
2022-07-27T22:51:50.374Z,51.10
2022-07-27T22:54:25.498Z,51.30
2022-07-27T22:56:54.195Z,51.50
2022-07-27T22:59:22.831Z,51.30
2022-07-27T23:01:51.086Z,51.50
2022-07-27T23:04:21.637Z,51.80
2022-07-27T23:06:51.215Z,51.60
2022-07-27T23:09:19.525Z,51.70
2022-07-27T23:11:47.716Z,51.90
2022-07-27T23:14:16.366Z,52.00
2022-07-27T23:16:46.873Z,52.10
2022-07-27T23:19:14.971Z,52.40
2022-07-27T23:21:43.143Z,52.40
2022-07-27T23:24:13.508Z,52.60
2022-07-27T23:26:42.692Z,52.80
2022-07-27T23:29:10.823Z,52.90
2022-07-27T23:31:39.037Z,53.00
2022-07-27T23:34:07.385Z,53.20
2022-07-27T23:36:37.909Z,53.40
2022-07-27T23:39:06.065Z,53.40
2022-07-27T23:41:35.518Z,53.40
2022-07-27T23:44:03.686Z,53.60
2022-07-27T23:46:31.804Z,53.40
2022-07-27T23:49:02.460Z,53.50
2022-07-27T23:51:32.912Z,53.60
2022-07-27T23:54:00.968Z,53.60
2022-07-27T23:56:29.086Z,53.70
2022-07-27T23:58:58.569Z,53.80
